sensor_id;sensor_type;location;lat;lon;timestamp;pressure;altitude;pressure_sealevel;temperature;humidity
47330;BME280;33060;50.178;7.570;2023-08-21T14:15:48;97565.94;;;27.82;65.45
47330;BME280;33060;50.178;7.570;2023-08-21T14:18:14;97570.16;;;26.81;64.99
47330;BME280;33060;50.178;7.570;2023-08-21T14:20:41;97566.28;;;26.41;66.30
47330;BME280;33060;50.178;7.570;2023-08-21T14:23:08;97567.25;;;26.33;66.16
47330;BME280;33060;50.178;7.570;2023-08-21T14:25:35;97571.63;;;26.13;66.92
47330;BME280;33060;50.178;7.570;2023-08-21T14:59:13;97525.91;;;27.91;57.91
47330;BME280;33060;50.178;7.570;2023-08-21T15:01:41;97521.72;;;27.88;59.57
47330;BME280;33060;50.178;7.570;2023-08-21T15:04:08;97529.28;;;28.00;59.84
47330;BME280;33060;50.178;7.570;2023-08-21T15:06:36;97521.47;;;27.70;61.70
47330;BME280;33060;50.178;7.570;2023-08-21T15:09:05;97525.84;;;27.71;60.38
47330;BME280;33060;50.178;7.570;2023-08-21T15:11:32;97529.41;;;27.78;60.17
47330;BME280;33060;50.178;7.570;2023-08-21T15:14:03;97511.47;;;27.77;59.32
47330;BME280;33060;50.178;7.570;2023-08-21T15:16:30;97517.41;;;27.46;62.01
47330;BME280;33060;50.178;7.570;2023-08-21T15:18:57;97519.06;;;26.71;62.95
47330;BME280;33060;50.178;7.570;2023-08-21T15:21:25;97508.19;;;26.99;62.75
47330;BME280;33060;50.178;7.570;2023-08-21T15:23:52;97520.78;;;27.55;62.81
47330;BME280;33060;50.178;7.570;2023-08-21T15:26:20;97516.59;;;27.04;63.60
47330;BME280;33060;50.178;7.570;2023-08-21T15:28:47;97520.06;;;26.64;63.20
47330;BME280;33060;50.178;7.570;2023-08-21T15:31:18;97520.06;;;26.64;64.41
47330;BME280;33060;50.178;7.570;2023-08-21T15:33:45;97522.72;;;26.85;66.14
47330;BME280;33060;50.178;7.570;2023-08-21T15:36:14;97521.91;;;27.19;64.22
47330;BME280;33060;50.178;7.570;2023-08-21T15:38:40;97522.84;;;27.05;64.15
47330;BME280;33060;50.178;7.570;2023-08-21T15:41:07;97526.09;;;26.94;65.31
47330;BME280;33060;50.178;7.570;2023-08-21T15:43:34;97515.91;;;26.96;64.70
47330;BME280;33060;50.178;7.570;2023-08-21T15:46:04;97518.66;;;26.74;65.43
47330;BME280;33060;50.178;7.570;2023-08-21T15:48:32;97524.25;;;26.38;66.35
47330;BME280;33060;50.178;7.570;2023-08-21T15:50:59;97515.81;;;26.27;66.31
47330;BME280;33060;50.178;7.570;2023-08-21T15:53:26;97523.97;;;26.33;65.60
47330;BME280;33060;50.178;7.570;2023-08-21T15:55:52;97518.75;;;26.53;66.62
47330;BME280;33060;50.178;7.570;2023-08-21T15:58:20;97534.59;;;26.13;66.07
47330;BME280;33060;50.178;7.570;2023-08-21T16:00:46;97522.00;;;25.99;66.85
47330;BME280;33060;50.178;7.570;2023-08-21T16:03:13;97521.94;;;26.63;64.35
47330;BME280;33060;50.178;7.570;2023-08-21T16:05:41;97517.34;;;26.14;65.65
47330;BME280;33060;50.178;7.570;2023-08-21T16:08:08;97523.09;;;25.83;66.43
47330;BME280;33060;50.178;7.570;2023-08-21T16:10:35;97508.94;;;25.81;66.79
47330;BME280;33060;50.178;7.570;2023-08-21T16:13:02;97516.41;;;26.01;67.90
47330;BME280;33060;50.178;7.570;2023-08-21T16:15:28;97517.56;;;25.91;67.28
47330;BME280;33060;50.178;7.570;2023-08-21T16:17:55;97509.78;;;25.82;67.27
47330;BME280;33060;50.178;7.570;2023-08-21T16:20:22;97513.63;;;25.58;67.79
47330;BME280;33060;50.178;7.570;2023-08-21T16:22:48;97514.66;;;25.72;67.27
47330;BME280;33060;50.178;7.570;2023-08-21T16:25:17;97512.97;;;25.71;68.06
47330;BME280;33060;50.178;7.570;2023-08-21T16:27:43;97516.00;;;25.46;67.33
47330;BME280;33060;50.178;7.570;2023-08-21T16:30:10;97508.16;;;25.51;69.05
47330;BME280;33060;50.178;7.570;2023-08-21T16:32:37;97508.03;;;25.59;68.54
47330;BME280;33060;50.178;7.570;2023-08-21T16:35:05;97508.69;;;25.61;69.06
47330;BME280;33060;50.178;7.570;2023-08-21T16:37:32;97509.19;;;25.86;68.09
47330;BME280;33060;50.178;7.570;2023-08-21T16:39:59;97510.91;;;25.94;66.73
47330;BME280;33060;50.178;7.570;2023-08-21T16:42:25;97503.84;;;25.72;67.54
47330;BME280;33060;50.178;7.570;2023-08-21T16:44:52;97508.75;;;25.68;66.57
47330;BME280;33060;50.178;7.570;2023-08-21T16:47:19;97514.38;;;25.52;67.33
47330;BME280;33060;50.178;7.570;2023-08-21T16:49:45;97511.25;;;25.48;68.02
47330;BME280;33060;50.178;7.570;2023-08-21T16:52:12;97503.97;;;25.49;68.02
47330;BME280;33060;50.178;7.570;2023-08-21T16:54:39;97511.25;;;25.48;68.51
47330;BME280;33060;50.178;7.570;2023-08-21T16:57:05;97505.66;;;25.35;67.84
47330;BME280;33060;50.178;7.570;2023-08-21T16:59:32;97510.00;;;25.29;68.65
47330;BME280;33060;50.178;7.570;2023-08-21T17:01:59;97504.75;;;25.28;67.61
47330;BME280;33060;50.178;7.570;2023-08-21T17:04:26;97504.69;;;25.21;68.70
47330;BME280;33060;50.178;7.570;2023-08-21T17:06:52;97504.78;;;25.13;68.86
47330;BME280;33060;50.178;7.570;2023-08-21T17:09:19;97502.66;;;25.08;68.55
47330;BME280;33060;50.178;7.570;2023-08-21T17:11:46;97497.78;;;25.19;68.87
47330;BME280;33060;50.178;7.570;2023-08-21T17:14:12;97503.56;;;25.16;70.08
47330;BME280;33060;50.178;7.570;2023-08-21T17:16:39;97501.06;;;25.14;68.55
47330;BME280;33060;50.178;7.570;2023-08-21T17:19:06;97500.00;;;25.00;69.43
47330;BME280;33060;50.178;7.570;2023-08-21T17:21:33;97500.94;;;24.93;70.07
47330;BME280;33060;50.178;7.570;2023-08-21T17:23:59;97507.38;;;24.92;69.04
47330;BME280;33060;50.178;7.570;2023-08-21T17:26:26;97506.91;;;24.88;69.02
47330;BME280;33060;50.178;7.570;2023-08-21T17:28:53;97509.06;;;24.78;69.74
47330;BME280;33060;50.178;7.570;2023-08-21T17:31:20;97508.97;;;24.71;69.57
47330;BME280;33060;50.178;7.570;2023-08-21T17:33:47;97497.25;;;24.79;69.06
47330;BME280;33060;50.178;7.570;2023-08-21T17:36:14;97509.97;;;24.56;70.16
47330;BME280;33060;50.178;7.570;2023-08-21T17:38:41;97502.16;;;24.46;69.66
47330;BME280;33060;50.178;7.570;2023-08-21T17:41:07;97509.03;;;24.48;70.11
47330;BME280;33060;50.178;7.570;2023-08-21T17:43:35;97505.50;;;24.33;69.50
47330;BME280;33060;50.178;7.570;2023-08-21T17:46:02;97522.06;;;24.22;69.52
47330;BME280;33060;50.178;7.570;2023-08-21T17:48:29;97518.59;;;24.13;68.82
47330;BME280;33060;50.178;7.570;2023-08-21T17:50:55;97519.34;;;24.07;69.33
47330;BME280;33060;50.178;7.570;2023-08-21T17:53:22;97517.16;;;24.03;69.66
47330;BME280;33060;50.178;7.570;2023-08-21T17:55:49;97516.78;;;24.06;69.77
47330;BME280;33060;50.178;7.570;2023-08-21T17:58:16;97513.69;;;23.94;70.13
47330;BME280;33060;50.178;7.570;2023-08-21T18:00:42;97510.94;;;23.79;70.40
47330;BME280;33060;50.178;7.570;2023-08-21T18:03:09;97509.44;;;23.77;70.82
47330;BME280;33060;50.178;7.570;2023-08-21T18:05:36;97516.28;;;23.64;70.93
47330;BME280;33060;50.178;7.570;2023-08-21T18:08:03;97513.25;;;23.59;71.49
47330;BME280;33060;50.178;7.570;2023-08-21T18:10:32;97510.81;;;23.41;72.05
47330;BME280;33060;50.178;7.570;2023-08-21T18:12:59;97516.28;;;23.56;72.82
47330;BME280;33060;50.178;7.570;2023-08-21T18:15:26;97523.63;;;23.39;72.90
47330;BME280;33060;50.178;7.570;2023-08-21T18:17:53;97524.13;;;23.35;73.84
47330;BME280;33060;50.178;7.570;2023-08-21T18:20:21;97530.09;;;23.22;74.46
47330;BME280;33060;50.178;7.570;2023-08-21T18:22:48;97520.81;;;22.94;76.09
47330;BME280;33060;50.178;7.570;2023-08-21T18:25:15;97516.28;;;22.78;75.92
47330;BME280;33060;50.178;7.570;2023-08-21T18:27:41;97523.38;;;22.63;76.71
47330;BME280;33060;50.178;7.570;2023-08-21T18:30:17;97519.47;;;22.73;76.36
47330;BME280;33060;50.178;7.570;2023-08-21T18:32:44;97518.00;;;22.63;77.21
47330;BME280;33060;50.178;7.570;2023-08-21T18:35:11;97516.53;;;22.36;78.31
47330;BME280;33060;50.178;7.570;2023-08-21T18:37:38;97512.16;;;22.43;77.40
47330;BME280;33060;50.178;7.570;2023-08-21T18:40:05;97513.19;;;22.17;77.90
47330;BME280;33060;50.178;7.570;2023-08-21T18:42:33;97523.28;;;22.07;78.60
47330;BME280;33060;50.178;7.570;2023-08-21T18:44:59;97519.38;;;22.01;79.51
47330;BME280;33060;50.178;7.570;2023-08-21T18:47:26;97525.59;;;22.02;79.61
47330;BME280;33060;50.178;7.570;2023-08-21T18:49:56;97522.91;;;21.86;80.10
47330;BME280;33060;50.178;7.570;2023-08-21T18:52:22;97524.25;;;21.98;79.41
47330;BME280;33060;50.178;7.570;2023-08-21T18:54:49;97529.94;;;21.79;80.71
47330;BME280;33060;50.178;7.570;2023-08-21T18:57:16;97535.88;;;21.32;82.69
47330;BME280;33060;50.178;7.570;2023-08-21T18:59:42;97535.38;;;21.02;84.45
47330;BME280;33060;50.178;7.570;2023-08-21T19:02:09;97542.56;;;21.28;83.46
47330;BME280;33060;50.178;7.570;2023-08-21T19:04:36;97546.13;;;21.02;84.53
47330;BME280;33060;50.178;7.570;2023-08-21T19:07:03;97542.34;;;21.63;81.60
47330;BME280;33060;50.178;7.570;2023-08-21T19:09:33;97546.13;;;21.02;84.32
47330;BME280;33060;50.178;7.570;2023-08-21T19:12:00;97553.28;;;21.28;83.71
47330;BME280;33060;50.178;7.570;2023-08-21T19:14:26;97554.66;;;20.98;85.76
47330;BME280;33060;50.178;7.570;2023-08-21T19:16:53;97549.56;;;21.21;84.15
47330;BME280;33060;50.178;7.570;2023-08-21T19:19:21;97550.34;;;21.39;82.73
47330;BME280;33060;50.178;7.570;2023-08-21T19:21:48;97547.28;;;21.34;82.33
47330;BME280;33060;50.178;7.570;2023-08-21T19:24:15;97554.25;;;20.84;85.63
47330;BME280;33060;50.178;7.570;2023-08-21T19:26:42;97559.50;;;20.60;86.66
47330;BME280;33060;50.178;7.570;2023-08-21T19:29:08;97553.06;;;20.53;86.95
47330;BME280;33060;50.178;7.570;2023-08-21T19:31:35;97555.81;;;20.61;86.81
47330;BME280;33060;50.178;7.570;2023-08-21T19:34:02;97558.66;;;20.59;86.60
47330;BME280;33060;50.178;7.570;2023-08-21T19:36:29;97559.91;;;20.73;85.32
47330;BME280;33060;50.178;7.570;2023-08-21T19:38:56;97556.59;;;20.53;86.86
47330;BME280;33060;50.178;7.570;2023-08-21T19:41:23;97559.44;;;20.34;88.30
47330;BME280;33060;50.178;7.570;2023-08-21T19:43:50;97563.13;;;20.33;88.33
47330;BME280;33060;50.178;7.570;2023-08-21T19:46:17;97559.56;;;20.32;88.35
47330;BME280;33060;50.178;7.570;2023-08-21T19:48:44;97557.06;;;20.31;88.19
47330;BME280;33060;50.178;7.570;2023-08-21T19:51:11;97558.16;;;20.20;88.06
47330;BME280;33060;50.178;7.570;2023-08-21T19:53:38;97550.41;;;20.35;88.01
47330;BME280;33060;50.178;7.570;2023-08-21T19:56:05;97560.41;;;20.07;89.39
47330;BME280;33060;50.178;7.570;2023-08-21T19:58:31;97557.34;;;20.02;89.21
47330;BME280;33060;50.178;7.570;2023-08-21T20:00:58;97552.16;;;19.83;90.44
47330;BME280;33060;50.178;7.570;2023-08-21T20:03:25;97557.50;;;19.83;90.53
47330;BME280;33060;50.178;7.570;2023-08-21T20:06:00;97563.31;;;19.78;91.04
47330;BME280;33060;50.178;7.570;2023-08-21T20:08:28;97560.03;;;19.66;91.79
47330;BME280;33060;50.178;7.570;2023-08-21T20:10:57;97549.31;;;19.66;91.99
47330;BME280;33060;50.178;7.570;2023-08-21T20:13:27;97555.91;;;19.44;92.80
47330;BME280;33060;50.178;7.570;2023-08-21T20:15:55;97560.78;;;19.31;94.60
47330;BME280;33060;50.178;7.570;2023-08-21T20:18:22;97554.91;;;19.18;95.79
47330;BME280;33060;50.178;7.570;2023-08-21T20:20:49;97550.09;;;19.49;93.86
47330;BME280;33060;50.178;7.570;2023-08-21T20:23:17;97535.72;;;19.50;92.36
47330;BME280;33060;50.178;7.570;2023-08-21T20:25:45;97536.63;;;19.41;92.99
47330;BME280;33060;50.178;7.570;2023-08-21T20:28:12;97541.16;;;19.40;93.08
47330;BME280;33060;50.178;7.570;2023-08-21T20:30:39;97545.94;;;19.37;92.81
47330;BME280;33060;50.178;7.570;2023-08-21T20:33:06;97542.75;;;19.33;92.89
47330;BME280;33060;50.178;7.570;2023-08-21T20:35:33;97547.84;;;19.27;92.28
47330;BME280;33060;50.178;7.570;2023-08-21T20:38:00;97546.56;;;19.31;92.09
47330;BME280;33060;50.178;7.570;2023-08-21T20:40:27;97547.94;;;19.07;93.23
47330;BME280;33060;50.178;7.570;2023-08-21T20:42:54;97550.00;;;18.96;94.81
47330;BME280;33060;50.178;7.570;2023-08-21T20:45:20;97550.22;;;19.02;94.95
47330;BME280;33060;50.178;7.570;2023-08-21T20:47:47;97548.88;;;18.88;95.55
47330;BME280;33060;50.178;7.570;2023-08-21T20:50:14;97555.28;;;19.05;94.27
47330;BME280;33060;50.178;7.570;2023-08-21T20:52:41;97551.25;;;18.91;95.25
47330;BME280;33060;50.178;7.570;2023-08-21T20:55:10;97545.28;;;19.07;93.61
47330;BME280;33060;50.178;7.570;2023-08-21T20:57:36;97557.28;;;18.47;97.84
47330;BME280;33060;50.178;7.570;2023-08-21T21:00:06;97555.34;;;18.29;100.00
47330;BME280;33060;50.178;7.570;2023-08-21T21:02:35;97551.38;;;18.53;99.18
47330;BME280;33060;50.178;7.570;2023-08-21T21:05:02;97554.03;;;18.53;99.18
47330;BME280;33060;50.178;7.570;2023-08-21T21:07:29;97544.72;;;18.57;100.00
47330;BME280;33060;50.178;7.570;2023-08-21T21:09:56;97547.84;;;18.52;98.11
47330;BME280;33060;50.178;7.570;2023-08-21T21:12:23;97546.72;;;18.55;98.90
47330;BME280;33060;50.178;7.570;2023-08-21T21:14:49;97544.59;;;18.58;98.05
47330;BME280;33060;50.178;7.570;2023-08-21T21:17:16;97550.69;;;18.41;98.31
47330;BME280;33060;50.178;7.570;2023-08-21T21:19:43;97540.84;;;18.42;97.90
47330;BME280;33060;50.178;7.570;2023-08-21T21:22:10;97544.22;;;18.44;97.84
47330;BME280;33060;50.178;7.570;2023-08-21T21:24:36;97536.94;;;18.36;98.47
47330;BME280;33060;50.178;7.570;2023-08-21T21:27:03;97536.41;;;18.03;100.00
47330;BME280;33060;50.178;7.570;2023-08-21T21:29:30;97545.72;;;17.90;100.00
47330;BME280;33060;50.178;7.570;2023-08-21T21:31:57;97538.69;;;17.98;100.00
47330;BME280;33060;50.178;7.570;2023-08-21T21:34:24;97543.88;;;18.10;100.00
47330;BME280;33060;50.178;7.570;2023-08-21T21:36:51;97547.66;;;18.07;100.00
47330;BME280;33060;50.178;7.570;2023-08-21T21:39:18;97540.22;;;18.01;100.00
47330;BME280;33060;50.178;7.570;2023-08-21T21:41:44;97539.66;;;18.07;100.00
47330;BME280;33060;50.178;7.570;2023-08-21T21:44:11;97542.31;;;17.78;100.00
47330;BME280;33060;50.178;7.570;2023-08-21T21:46:38;97549.59;;;17.66;100.00
47330;BME280;33060;50.178;7.570;2023-08-21T21:49:05;97543.47;;;17.75;100.00
47330;BME280;33060;50.178;7.570;2023-08-21T21:51:32;97541.75;;;18.13;99.43
47330;BME280;33060;50.178;7.570;2023-08-21T21:53:59;97547.09;;;18.03;99.47
47330;BME280;33060;50.178;7.570;2023-08-21T21:56:26;97537.13;;;17.96;100.00
47330;BME280;33060;50.178;7.570;2023-08-21T21:58:52;97537.28;;;17.85;100.00
47330;BME280;33060;50.178;7.570;2023-08-21T22:01:20;97532.50;;;17.78;100.00
47330;BME280;33060;50.178;7.570;2023-08-21T22:03:47;97531.06;;;17.65;100.00
47330;BME280;33060;50.178;7.570;2023-08-21T22:06:17;97541.44;;;17.68;100.00
47330;BME280;33060;50.178;7.570;2023-08-21T22:08:44;97541.31;;;17.69;100.00
47330;BME280;33060;50.178;7.570;2023-08-21T22:11:11;97535.03;;;17.70;100.00
47330;BME280;33060;50.178;7.570;2023-08-21T22:13:39;97535.75;;;17.72;100.00
47330;BME280;33060;50.178;7.570;2023-08-21T22:16:06;97530.78;;;17.68;100.00
47330;BME280;33060;50.178;7.570;2023-08-21T22:18:33;97529.78;;;17.59;100.00
47330;BME280;33060;50.178;7.570;2023-08-21T22:20:59;97538.34;;;17.63;100.00
47330;BME280;33060;50.178;7.570;2023-08-21T22:23:26;97533.59;;;17.47;100.00
47330;BME280;33060;50.178;7.570;2023-08-21T22:25:53;97540.59;;;17.58;100.00
47330;BME280;33060;50.178;7.570;2023-08-21T22:28:20;97530.78;;;17.58;100.00
47330;BME280;33060;50.178;7.570;2023-08-21T22:30:46;97535.00;;;17.61;100.00
47330;BME280;33060;50.178;7.570;2023-08-21T22:33:13;97532.16;;;17.62;100.00
47330;BME280;33060;50.178;7.570;2023-08-21T22:35:40;97529.25;;;17.56;100.00
47330;BME280;33060;50.178;7.570;2023-08-21T22:38:07;97524.03;;;17.54;100.00
47330;BME280;33060;50.178;7.570;2023-08-21T22:40:33;97524.03;;;17.54;100.00
47330;BME280;33060;50.178;7.570;2023-08-21T22:43:00;97525.69;;;17.45;100.00
47330;BME280;33060;50.178;7.570;2023-08-21T22:45:27;97522.06;;;17.46;100.00
47330;BME280;33060;50.178;7.570;2023-08-21T22:47:53;97523.16;;;17.34;100.00
47330;BME280;33060;50.178;7.570;2023-08-21T22:50:20;97518.94;;;17.22;100.00
47330;BME280;33060;50.178;7.570;2023-08-21T22:52:47;97518.53;;;17.36;100.00
47330;BME280;33060;50.178;7.570;2023-08-21T22:55:15;97522.63;;;17.31;100.00
47330;BME280;33060;50.178;7.570;2023-08-21T22:57:42;97518.09;;;17.21;100.00
47330;BME280;33060;50.178;7.570;2023-08-21T23:00:15;97523.97;;;17.15;100.00
47330;BME280;33060;50.178;7.570;2023-08-21T23:02:41;97524.97;;;17.14;100.00
47330;BME280;33060;50.178;7.570;2023-08-21T23:05:09;97525.25;;;17.21;100.00
47330;BME280;33060;50.178;7.570;2023-08-21T23:07:36;97518.22;;;17.20;100.00
47330;BME280;33060;50.178;7.570;2023-08-21T23:10:04;97526.22;;;17.20;100.00
47330;BME280;33060;50.178;7.570;2023-08-21T23:12:33;97519.50;;;17.26;100.00
47330;BME280;33060;50.178;7.570;2023-08-21T23:15:00;97513.16;;;17.17;100.00
47330;BME280;33060;50.178;7.570;2023-08-21T23:17:26;97517.09;;;17.13;100.00
47330;BME280;33060;50.178;7.570;2023-08-21T23:19:53;97515.28;;;17.13;100.00
47330;BME280;33060;50.178;7.570;2023-08-21T23:22:20;97512.44;;;16.95;100.00
47330;BME280;33060;50.178;7.570;2023-08-21T23:24:46;97510.69;;;16.85;100.00
47330;BME280;33060;50.178;7.570;2023-08-21T23:27:13;97521.13;;;16.98;100.00
47330;BME280;33060;50.178;7.570;2023-08-21T23:29:40;97517.75;;;16.95;100.00
47330;BME280;33060;50.178;7.570;2023-08-21T23:32:07;97512.44;;;16.95;100.00
47330;BME280;33060;50.178;7.570;2023-08-21T23:34:33;97511.88;;;17.02;100.00
47330;BME280;33060;50.178;7.570;2023-08-21T23:37:01;97504.13;;;16.89;100.00
47330;BME280;33060;50.178;7.570;2023-08-21T23:39:27;97509.00;;;16.84;100.00
47330;BME280;33060;50.178;7.570;2023-08-21T23:41:54;97505.25;;;16.86;100.00
47330;BME280;33060;50.178;7.570;2023-08-21T23:44:21;97504.81;;;16.81;100.00
47330;BME280;33060;50.178;7.570;2023-08-21T23:46:47;97503.66;;;16.74;100.00
47330;BME280;33060;50.178;7.570;2023-08-21T23:49:14;97498.09;;;16.87;100.00
47330;BME280;33060;50.178;7.570;2023-08-21T23:51:41;97503.97;;;16.81;100.00
47330;BME280;33060;50.178;7.570;2023-08-21T23:54:08;97502.41;;;16.78;100.00
47330;BME280;33060;50.178;7.570;2023-08-21T23:56:35;97497.22;;;16.77;100.00
47330;BME280;33060;50.178;7.570;2023-08-21T23:59:02;97488.69;;;16.52;100.00
